sensor_id;sensor_type;location;lat;lon;timestamp;P1;durP1;ratioP1;P2;durP2;ratioP2
58308;SDS011;44117;57.142;24.826;2022-10-18T00:00:58;13.07;;;7.03;;
58308;SDS011;44117;57.142;24.826;2022-10-18T00:03:25;9.38;;;4.80;;
58308;SDS011;44117;57.142;24.826;2022-10-18T00:05:52;11.25;;;5.45;;
58308;SDS011;44117;57.142;24.826;2022-10-18T00:08:19;9.43;;;4.57;;
58308;SDS011;44117;57.142;24.826;2022-10-18T00:10:47;10.60;;;6.03;;
58308;SDS011;44117;57.142;24.826;2022-10-18T00:13:15;20.67;;;5.07;;
58308;SDS011;44117;57.142;24.826;2022-10-18T00:15:47;10.20;;;4.53;;
58308;SDS011;44117;57.142;24.826;2022-10-18T00:18:15;9.05;;;5.60;;
58308;SDS011;44117;57.142;24.826;2022-10-18T00:20:43;11.68;;;7.97;;
58308;SDS011;44117;57.142;24.826;2022-10-18T00:23:10;10.07;;;8.13;;
58308;SDS011;44117;57.142;24.826;2022-10-18T00:25:37;15.65;;;8.77;;
58308;SDS011;44117;57.142;24.826;2022-10-18T00:28:04;16.75;;;9.70;;
58308;SDS011;44117;57.142;24.826;2022-10-18T00:30:32;15.32;;;9.88;;
58308;SDS011;44117;57.142;24.826;2022-10-18T00:32:59;11.50;;;8.93;;
58308;SDS011;44117;57.142;24.826;2022-10-18T00:35:26;14.85;;;10.90;;
58308;SDS011;44117;57.142;24.826;2022-10-18T00:37:53;15.40;;;12.40;;
58308;SDS011;44117;57.142;24.826;2022-10-18T00:40:20;16.80;;;11.48;;
58308;SDS011;44117;57.142;24.826;2022-10-18T00:42:48;17.58;;;13.00;;
58308;SDS011;44117;57.142;24.826;2022-10-18T00:45:19;18.58;;;14.32;;
58308;SDS011;44117;57.142;24.826;2022-10-18T00:48:06;24.20;;;18.85;;
58308;SDS011;44117;57.142;24.826;2022-10-18T00:50:33;25.55;;;18.80;;
58308;SDS011;44117;57.142;24.826;2022-10-18T00:53:02;25.25;;;19.13;;
58308;SDS011;44117;57.142;24.826;2022-10-18T00:55:34;24.35;;;18.88;;
58308;SDS011;44117;57.142;24.826;2022-10-18T00:58:01;24.67;;;20.77;;
58308;SDS011;44117;57.142;24.826;2022-10-18T01:00:30;28.70;;;22.65;;
58308;SDS011;44117;57.142;24.826;2022-10-18T01:02:58;32.33;;;24.98;;
58308;SDS011;44117;57.142;24.826;2022-10-18T01:05:25;32.33;;;26.90;;
58308;SDS011;44117;57.142;24.826;2022-10-18T01:10:46;35.10;;;25.10;;
58308;SDS011;44117;57.142;24.826;2022-10-18T01:17:14;28.48;;;21.75;;
58308;SDS011;44117;57.142;24.826;2022-10-18T01:20:00;32.28;;;23.67;;
58308;SDS011;44117;57.142;24.826;2022-10-18T01:28:33;31.77;;;22.92;;
58308;SDS011;44117;57.142;24.826;2022-10-18T01:31:00;30.95;;;24.23;;
58308;SDS011;44117;57.142;24.826;2022-10-18T01:33:51;30.65;;;24.05;;
58308;SDS011;44117;57.142;24.826;2022-10-18T01:36:30;32.53;;;25.33;;
58308;SDS011;44117;57.142;24.826;2022-10-18T01:39:04;33.00;;;24.30;;
58308;SDS011;44117;57.142;24.826;2022-10-18T01:41:34;35.13;;;25.85;;
58308;SDS011;44117;57.142;24.826;2022-10-18T01:44:05;30.90;;;24.95;;
58308;SDS011;44117;57.142;24.826;2022-10-18T01:46:35;34.00;;;25.30;;
58308;SDS011;44117;57.142;24.826;2022-10-18T01:49:04;33.95;;;25.05;;
58308;SDS011;44117;57.142;24.826;2022-10-18T01:51:32;37.25;;;26.92;;
58308;SDS011;44117;57.142;24.826;2022-10-18T01:54:00;38.00;;;27.92;;
58308;SDS011;44117;57.142;24.826;2022-10-18T01:56:50;38.90;;;28.17;;
58308;SDS011;44117;57.142;24.826;2022-10-18T02:10:07;44.28;;;33.22;;
58308;SDS011;44117;57.142;24.826;2022-10-18T02:12:43;56.25;;;35.13;;
58308;SDS011;44117;57.142;24.826;2022-10-18T02:15:13;52.63;;;35.88;;
58308;SDS011;44117;57.142;24.826;2022-10-18T02:17:45;56.08;;;38.92;;
58308;SDS011;44117;57.142;24.826;2022-10-18T02:20:13;59.67;;;39.85;;
58308;SDS011;44117;57.142;24.826;2022-10-18T02:22:45;57.63;;;40.47;;
58308;SDS011;44117;57.142;24.826;2022-10-18T02:25:17;60.33;;;42.35;;
58308;SDS011;44117;57.142;24.826;2022-10-18T02:27:47;64.20;;;43.63;;
58308;SDS011;44117;57.142;24.826;2022-10-18T02:30:15;64.32;;;44.72;;
58308;SDS011;44117;57.142;24.826;2022-10-18T02:33:03;72.88;;;48.30;;
58308;SDS011;44117;57.142;24.826;2022-10-18T02:35:35;69.20;;;47.13;;
58308;SDS011;44117;57.142;24.826;2022-10-18T02:38:07;71.67;;;49.33;;
58308;SDS011;44117;57.142;24.826;2022-10-18T02:40:37;73.25;;;50.00;;
58308;SDS011;44117;57.142;24.826;2022-10-18T02:43:05;68.13;;;47.65;;
58308;SDS011;44117;57.142;24.826;2022-10-18T02:45:32;62.55;;;46.30;;
58308;SDS011;44117;57.142;24.826;2022-10-18T02:47:59;69.80;;;45.33;;
58308;SDS011;44117;57.142;24.826;2022-10-18T02:50:27;60.20;;;44.70;;
58308;SDS011;44117;57.142;24.826;2022-10-18T02:52:54;64.75;;;44.65;;
58308;SDS011;44117;57.142;24.826;2022-10-18T02:55:22;61.08;;;44.33;;
58308;SDS011;44117;57.142;24.826;2022-10-18T02:57:49;59.75;;;43.83;;
58308;SDS011;44117;57.142;24.826;2022-10-18T03:00:16;57.95;;;42.28;;
58308;SDS011;44117;57.142;24.826;2022-10-18T03:02:43;60.20;;;43.35;;
58308;SDS011;44117;57.142;24.826;2022-10-18T03:05:11;59.10;;;42.97;;
58308;SDS011;44117;57.142;24.826;2022-10-18T03:07:38;60.00;;;43.35;;
58308;SDS011;44117;57.142;24.826;2022-10-18T03:10:05;58.70;;;41.53;;
58308;SDS011;44117;57.142;24.826;2022-10-18T03:12:33;57.78;;;41.75;;
58308;SDS011;44117;57.142;24.826;2022-10-18T03:15:00;58.08;;;40.88;;
58308;SDS011;44117;57.142;24.826;2022-10-18T03:17:27;53.08;;;40.42;;
58308;SDS011;44117;57.142;24.826;2022-10-18T03:19:55;50.65;;;38.55;;
58308;SDS011;44117;57.142;24.826;2022-10-18T03:22:22;48.70;;;36.55;;
58308;SDS011;44117;57.142;24.826;2022-10-18T03:24:50;48.40;;;36.45;;
58308;SDS011;44117;57.142;24.826;2022-10-18T03:27:17;50.13;;;36.85;;
58308;SDS011;44117;57.142;24.826;2022-10-18T03:29:45;42.83;;;34.15;;
58308;SDS011;44117;57.142;24.826;2022-10-18T03:32:12;47.45;;;34.10;;
58308;SDS011;44117;57.142;24.826;2022-10-18T03:34:39;42.83;;;32.40;;
58308;SDS011;44117;57.142;24.826;2022-10-18T03:37:06;35.53;;;29.95;;
58308;SDS011;44117;57.142;24.826;2022-10-18T03:39:33;38.30;;;29.65;;
58308;SDS011;44117;57.142;24.826;2022-10-18T03:42:01;32.95;;;27.52;;
58308;SDS011;44117;57.142;24.826;2022-10-18T03:44:28;36.70;;;28.10;;
58308;SDS011;44117;57.142;24.826;2022-10-18T03:46:55;29.25;;;25.30;;
58308;SDS011;44117;57.142;24.826;2022-10-18T03:49:22;26.25;;;21.60;;
58308;SDS011;44117;57.142;24.826;2022-10-18T03:51:50;22.83;;;20.38;;
58308;SDS011;44117;57.142;24.826;2022-10-18T03:54:17;19.63;;;17.42;;
58308;SDS011;44117;57.142;24.826;2022-10-18T03:56:44;17.65;;;15.90;;
58308;SDS011;44117;57.142;24.826;2022-10-18T03:59:11;14.85;;;13.35;;
58308;SDS011;44117;57.142;24.826;2022-10-18T04:01:39;16.27;;;13.52;;
58308;SDS011;44117;57.142;24.826;2022-10-18T04:04:06;11.98;;;10.77;;
58308;SDS011;44117;57.142;24.826;2022-10-18T04:06:33;11.55;;;10.35;;
58308;SDS011;44117;57.142;24.826;2022-10-18T04:09:00;11.30;;;9.85;;
58308;SDS011;44117;57.142;24.826;2022-10-18T04:11:31;10.18;;;9.18;;
58308;SDS011;44117;57.142;24.826;2022-10-18T04:13:59;10.15;;;9.15;;
58308;SDS011;44117;57.142;24.826;2022-10-18T04:16:26;9.43;;;8.40;;
58308;SDS011;44117;57.142;24.826;2022-10-18T04:18:53;9.18;;;7.80;;
58308;SDS011;44117;57.142;24.826;2022-10-18T04:21:20;8.73;;;7.72;;
58308;SDS011;44117;57.142;24.826;2022-10-18T04:23:48;8.10;;;7.00;;
58308;SDS011;44117;57.142;24.826;2022-10-18T04:26:16;8.30;;;6.65;;
58308;SDS011;44117;57.142;24.826;2022-10-18T04:28:43;7.07;;;6.15;;
58308;SDS011;44117;57.142;24.826;2022-10-18T04:31:10;7.50;;;5.65;;
58308;SDS011;44117;57.142;24.826;2022-10-18T04:33:37;8.15;;;5.63;;
58308;SDS011;44117;57.142;24.826;2022-10-18T04:36:05;6.38;;;5.78;;
58308;SDS011;44117;57.142;24.826;2022-10-18T04:38:32;7.10;;;5.50;;
58308;SDS011;44117;57.142;24.826;2022-10-18T04:41:00;8.50;;;6.07;;
58308;SDS011;44117;57.142;24.826;2022-10-18T04:43:27;7.18;;;5.82;;
58308;SDS011;44117;57.142;24.826;2022-10-18T04:45:54;8.48;;;6.20;;
58308;SDS011;44117;57.142;24.826;2022-10-18T04:48:22;8.90;;;6.07;;
58308;SDS011;44117;57.142;24.826;2022-10-18T04:50:49;7.90;;;6.50;;
58308;SDS011;44117;57.142;24.826;2022-10-18T04:53:17;7.50;;;6.70;;
58308;SDS011;44117;57.142;24.826;2022-10-18T04:55:46;9.18;;;6.70;;
58308;SDS011;44117;57.142;24.826;2022-10-18T04:58:15;8.30;;;6.03;;
58308;SDS011;44117;57.142;24.826;2022-10-18T05:00:43;7.55;;;6.13;;
58308;SDS011;44117;57.142;24.826;2022-10-18T05:03:11;7.53;;;6.40;;
58308;SDS011;44117;57.142;24.826;2022-10-18T05:05:39;7.90;;;6.25;;
58308;SDS011;44117;57.142;24.826;2022-10-18T05:08:26;9.75;;;6.03;;
58308;SDS011;44117;57.142;24.826;2022-10-18T05:10:54;10.52;;;6.63;;
58308;SDS011;44117;57.142;24.826;2022-10-18T05:13:21;7.55;;;5.82;;
58308;SDS011;44117;57.142;24.826;2022-10-18T05:15:48;7.40;;;6.15;;
58308;SDS011;44117;57.142;24.826;2022-10-18T05:18:16;7.13;;;6.43;;
58308;SDS011;44117;57.142;24.826;2022-10-18T05:20:43;8.00;;;6.13;;
58308;SDS011;44117;57.142;24.826;2022-10-18T05:23:10;7.28;;;6.03;;
58308;SDS011;44117;57.142;24.826;2022-10-18T05:25:38;7.45;;;5.88;;
58308;SDS011;44117;57.142;24.826;2022-10-18T05:28:06;8.43;;;6.47;;
58308;SDS011;44117;57.142;24.826;2022-10-18T05:30:52;10.63;;;6.30;;
58308;SDS011;44117;57.142;24.826;2022-10-18T05:33:19;8.75;;;6.38;;
58308;SDS011;44117;57.142;24.826;2022-10-18T05:35:46;7.50;;;6.45;;
58308;SDS011;44117;57.142;24.826;2022-10-18T05:38:14;10.75;;;6.82;;
58308;SDS011;44117;57.142;24.826;2022-10-18T05:40:41;8.40;;;6.82;;
58308;SDS011;44117;57.142;24.826;2022-10-18T05:43:08;8.00;;;6.70;;
58308;SDS011;44117;57.142;24.826;2022-10-18T05:45:35;9.45;;;6.35;;
58308;SDS011;44117;57.142;24.826;2022-10-18T05:48:03;9.35;;;6.32;;
58308;SDS011;44117;57.142;24.826;2022-10-18T05:50:32;7.20;;;6.30;;
58308;SDS011;44117;57.142;24.826;2022-10-18T05:53:05;9.75;;;6.80;;
58308;SDS011;44117;57.142;24.826;2022-10-18T05:55:49;8.07;;;7.28;;
58308;SDS011;44117;57.142;24.826;2022-10-18T05:58:17;11.88;;;7.60;;
58308;SDS011;44117;57.142;24.826;2022-10-18T06:00:44;9.98;;;8.02;;
58308;SDS011;44117;57.142;24.826;2022-10-18T06:03:11;10.80;;;7.72;;
58308;SDS011;44117;57.142;24.826;2022-10-18T06:05:38;12.43;;;8.13;;
58308;SDS011;44117;57.142;24.826;2022-10-18T06:08:06;9.15;;;8.25;;
58308;SDS011;44117;57.142;24.826;2022-10-18T06:10:37;11.05;;;7.90;;
58308;SDS011;44117;57.142;24.826;2022-10-18T06:13:05;13.38;;;9.52;;
58308;SDS011;44117;57.142;24.826;2022-10-18T06:15:32;11.13;;;9.20;;
58308;SDS011;44117;57.142;24.826;2022-10-18T06:18:00;9.43;;;8.02;;
58308;SDS011;44117;57.142;24.826;2022-10-18T06:20:27;9.02;;;7.65;;
58308;SDS011;44117;57.142;24.826;2022-10-18T06:22:54;11.20;;;9.07;;
58308;SDS011;44117;57.142;24.826;2022-10-18T06:25:21;10.98;;;8.45;;
58308;SDS011;44117;57.142;24.826;2022-10-18T06:27:49;9.88;;;7.95;;
58308;SDS011;44117;57.142;24.826;2022-10-18T06:30:16;10.68;;;8.82;;
58308;SDS011;44117;57.142;24.826;2022-10-18T06:32:43;13.32;;;9.35;;
58308;SDS011;44117;57.142;24.826;2022-10-18T06:35:10;9.48;;;7.82;;
58308;SDS011;44117;57.142;24.826;2022-10-18T06:37:37;9.90;;;8.65;;
58308;SDS011;44117;57.142;24.826;2022-10-18T06:40:05;9.98;;;8.98;;
58308;SDS011;44117;57.142;24.826;2022-10-18T06:42:33;11.63;;;9.30;;
58308;SDS011;44117;57.142;24.826;2022-10-18T06:45:00;13.13;;;9.32;;
58308;SDS011;44117;57.142;24.826;2022-10-18T06:47:29;9.95;;;8.90;;
58308;SDS011;44117;57.142;24.826;2022-10-18T06:49:56;11.48;;;8.00;;
58308;SDS011;44117;57.142;24.826;2022-10-18T06:52:23;10.95;;;7.72;;
58308;SDS011;44117;57.142;24.826;2022-10-18T06:54:51;10.90;;;8.10;;
58308;SDS011;44117;57.142;24.826;2022-10-18T06:57:19;9.05;;;7.40;;
58308;SDS011;44117;57.142;24.826;2022-10-18T06:59:46;10.10;;;7.13;;
58308;SDS011;44117;57.142;24.826;2022-10-18T07:02:15;9.07;;;7.20;;
58308;SDS011;44117;57.142;24.826;2022-10-18T07:04:43;9.85;;;7.55;;
58308;SDS011;44117;57.142;24.826;2022-10-18T07:07:10;10.20;;;7.68;;
58308;SDS011;44117;57.142;24.826;2022-10-18T07:09:37;11.63;;;8.85;;
58308;SDS011;44117;57.142;24.826;2022-10-18T07:12:05;10.38;;;8.65;;
58308;SDS011;44117;57.142;24.826;2022-10-18T07:14:33;8.43;;;7.07;;
58308;SDS011;44117;57.142;24.826;2022-10-18T07:17:00;7.57;;;5.93;;
58308;SDS011;44117;57.142;24.826;2022-10-18T07:19:27;8.50;;;6.25;;
58308;SDS011;44117;57.142;24.826;2022-10-18T07:21:54;8.32;;;5.93;;
58308;SDS011;44117;57.142;24.826;2022-10-18T07:24:21;10.13;;;6.43;;
58308;SDS011;44117;57.142;24.826;2022-10-18T07:26:49;8.57;;;5.85;;
58308;SDS011;44117;57.142;24.826;2022-10-18T07:29:16;10.57;;;6.28;;
58308;SDS011;44117;57.142;24.826;2022-10-18T07:31:43;8.10;;;6.28;;
58308;SDS011;44117;57.142;24.826;2022-10-18T07:34:11;6.75;;;5.93;;
58308;SDS011;44117;57.142;24.826;2022-10-18T07:36:39;8.63;;;5.78;;
58308;SDS011;44117;57.142;24.826;2022-10-18T07:39:07;7.95;;;5.25;;
58308;SDS011;44117;57.142;24.826;2022-10-18T07:41:34;7.82;;;5.20;;
58308;SDS011;44117;57.142;24.826;2022-10-18T07:44:02;7.88;;;5.35;;
58308;SDS011;44117;57.142;24.826;2022-10-18T07:46:30;7.30;;;4.55;;
58308;SDS011;44117;57.142;24.826;2022-10-18T07:48:57;8.65;;;5.03;;
58308;SDS011;44117;57.142;24.826;2022-10-18T07:51:25;8.27;;;4.68;;
58308;SDS011;44117;57.142;24.826;2022-10-18T07:53:53;7.20;;;4.82;;
58308;SDS011;44117;57.142;24.826;2022-10-18T07:56:20;6.45;;;4.70;;
58308;SDS011;44117;57.142;24.826;2022-10-18T07:58:52;6.75;;;4.85;;
58308;SDS011;44117;57.142;24.826;2022-10-18T08:01:22;8.32;;;5.28;;
58308;SDS011;44117;57.142;24.826;2022-10-18T08:03:51;8.00;;;5.60;;
58308;SDS011;44117;57.142;24.826;2022-10-18T08:06:19;6.70;;;5.10;;
58308;SDS011;44117;57.142;24.826;2022-10-18T08:08:48;7.85;;;4.47;;
58308;SDS011;44117;57.142;24.826;2022-10-18T08:11:16;6.20;;;4.30;;
58308;SDS011;44117;57.142;24.826;2022-10-18T08:13:48;6.47;;;4.40;;
58308;SDS011;44117;57.142;24.826;2022-10-18T08:16:16;7.90;;;4.22;;
58308;SDS011;44117;57.142;24.826;2022-10-18T08:18:45;9.48;;;4.97;;
58308;SDS011;44117;57.142;24.826;2022-10-18T08:21:13;7.45;;;3.78;;
58308;SDS011;44117;57.142;24.826;2022-10-18T08:23:41;7.32;;;4.18;;
58308;SDS011;44117;57.142;24.826;2022-10-18T08:26:10;4.10;;;3.20;;
58308;SDS011;44117;57.142;24.826;2022-10-18T08:28:39;5.28;;;3.10;;
58308;SDS011;44117;57.142;24.826;2022-10-18T08:31:19;7.70;;;3.30;;
58308;SDS011;44117;57.142;24.826;2022-10-18T08:33:46;7.05;;;2.90;;
58308;SDS011;44117;57.142;24.826;2022-10-18T08:36:14;5.60;;;2.97;;
58308;SDS011;44117;57.142;24.826;2022-10-18T08:38:42;4.93;;;2.50;;
58308;SDS011;44117;57.142;24.826;2022-10-18T08:44:03;5.50;;;2.45;;
58308;SDS011;44117;57.142;24.826;2022-10-18T08:46:38;2.72;;;2.33;;
58308;SDS011;44117;57.142;24.826;2022-10-18T08:52:18;3.55;;;2.10;;
58308;SDS011;44117;57.142;24.826;2022-10-18T08:55:12;3.45;;;2.40;;
58308;SDS011;44117;57.142;24.826;2022-10-18T08:58:02;4.10;;;2.17;;
58308;SDS011;44117;57.142;24.826;2022-10-18T09:00:33;5.63;;;2.53;;
58308;SDS011;44117;57.142;24.826;2022-10-18T09:06:14;3.92;;;1.98;;
58308;SDS011;44117;57.142;24.826;2022-10-18T09:14:22;3.42;;;1.75;;
58308;SDS011;44117;57.142;24.826;2022-10-18T09:34:04;4.40;;;2.15;;
58308;SDS011;44117;57.142;24.826;2022-10-18T09:36:31;4.70;;;2.28;;
58308;SDS011;44117;57.142;24.826;2022-10-18T09:39:03;5.10;;;1.90;;
58308;SDS011;44117;57.142;24.826;2022-10-18T09:41:47;4.50;;;1.90;;
58308;SDS011;44117;57.142;24.826;2022-10-18T09:46:51;5.93;;;2.17;;
58308;SDS011;44117;57.142;24.826;2022-10-18T09:49:54;3.67;;;1.83;;
58308;SDS011;44117;57.142;24.826;2022-10-18T09:52:38;2.55;;;1.60;;
58308;SDS011;44117;57.142;24.826;2022-10-18T09:55:17;4.28;;;1.60;;
58308;SDS011;44117;57.142;24.826;2022-10-18T09:57:52;3.58;;;1.55;;
58308;SDS011;44117;57.142;24.826;2022-10-18T10:00:27;4.70;;;2.08;;
58308;SDS011;44117;57.142;24.826;2022-10-18T10:05:26;2.90;;;1.55;;
58308;SDS011;44117;57.142;24.826;2022-10-18T10:07:57;3.78;;;1.40;;
58308;SDS011;44117;57.142;24.826;2022-10-18T10:10:25;2.17;;;1.27;;
58308;SDS011;44117;57.142;24.826;2022-10-18T10:13:28;4.03;;;1.13;;
58308;SDS011;44117;57.142;24.826;2022-10-18T10:15:59;2.90;;;1.30;;
58308;SDS011;44117;57.142;24.826;2022-10-18T10:18:28;2.75;;;1.10;;
58308;SDS011;44117;57.142;24.826;2022-10-18T10:20:59;4.13;;;1.30;;
58308;SDS011;44117;57.142;24.826;2022-10-18T10:23:46;2.88;;;1.20;;
58308;SDS011;44117;57.142;24.826;2022-10-18T10:26:24;3.05;;;1.10;;
58308;SDS011;44117;57.142;24.826;2022-10-18T10:29:47;4.15;;;1.00;;
58308;SDS011;44117;57.142;24.826;2022-10-18T10:32:14;3.33;;;1.10;;
58308;SDS011;44117;57.142;24.826;2022-10-18T10:34:43;3.70;;;1.20;;
58308;SDS011;44117;57.142;24.826;2022-10-18T10:37:28;1.52;;;1.10;;
58308;SDS011;44117;57.142;24.826;2022-10-18T10:40:06;2.00;;;1.10;;
58308;SDS011;44117;57.142;24.826;2022-10-18T10:42:50;2.40;;;0.85;;
58308;SDS011;44117;57.142;24.826;2022-10-18T10:46:02;1.50;;;1.00;;
58308;SDS011;44117;57.142;24.826;2022-10-18T10:48:55;2.63;;;1.10;;
58308;SDS011;44117;57.142;24.826;2022-10-18T10:51:42;3.53;;;1.15;;
58308;SDS011;44117;57.142;24.826;2022-10-18T10:54:16;3.63;;;1.33;;
58308;SDS011;44117;57.142;24.826;2022-10-18T10:56:58;3.15;;;1.23;;
58308;SDS011;44117;57.142;24.826;2022-10-18T10:59:30;2.22;;;1.20;;
58308;SDS011;44117;57.142;24.826;2022-10-18T11:04:45;3.05;;;1.10;;
58308;SDS011;44117;57.142;24.826;2022-10-18T11:07:22;2.22;;;1.10;;
58308;SDS011;44117;57.142;24.826;2022-10-18T11:10:00;4.60;;;1.30;;
58308;SDS011;44117;57.142;24.826;2022-10-18T11:15:33;2.70;;;1.50;;
58308;SDS011;44117;57.142;24.826;2022-10-18T11:18:26;2.40;;;1.30;;
58308;SDS011;44117;57.142;24.826;2022-10-18T11:20:59;2.60;;;1.40;;
58308;SDS011;44117;57.142;24.826;2022-10-18T11:23:37;2.60;;;1.30;;
58308;SDS011;44117;57.142;24.826;2022-10-18T11:37:21;2.97;;;1.10;;
58308;SDS011;44117;57.142;24.826;2022-10-18T11:46:24;3.38;;;1.42;;
58308;SDS011;44117;57.142;24.826;2022-10-18T11:52:02;2.15;;;1.20;;
58308;SDS011;44117;57.142;24.826;2022-10-18T11:57:42;3.22;;;1.10;;
58308;SDS011;44117;57.142;24.826;2022-10-18T12:02:56;3.80;;;1.23;;
58308;SDS011;44117;57.142;24.826;2022-10-18T12:08:10;3.72;;;1.42;;
58308;SDS011;44117;57.142;24.826;2022-10-18T12:10:41;4.18;;;1.40;;
58308;SDS011;44117;57.142;24.826;2022-10-18T12:13:35;2.33;;;1.30;;
58308;SDS011;44117;57.142;24.826;2022-10-18T12:16:18;2.63;;;1.17;;
58308;SDS011;44117;57.142;24.826;2022-10-18T12:19:06;3.17;;;1.17;;
58308;SDS011;44117;57.142;24.826;2022-10-18T12:21:40;2.53;;;1.38;;
58308;SDS011;44117;57.142;24.826;2022-10-18T12:24:11;2.85;;;1.30;;
58308;SDS011;44117;57.142;24.826;2022-10-18T12:26:44;2.85;;;1.25;;
58308;SDS011;44117;57.142;24.826;2022-10-18T12:34:33;9.25;;;6.45;;
58308;SDS011;44117;57.142;24.826;2022-10-18T12:37:30;3.60;;;1.63;;
58308;SDS011;44117;57.142;24.826;2022-10-18T12:42:47;6.93;;;5.50;;
58308;SDS011;44117;57.142;24.826;2022-10-18T12:47:51;1.90;;;1.15;;
58308;SDS011;44117;57.142;24.826;2022-10-18T12:50:25;2.97;;;1.63;;
58308;SDS011;44117;57.142;24.826;2022-10-18T12:55:32;3.55;;;1.45;;
58308;SDS011;44117;57.142;24.826;2022-10-18T12:58:25;2.63;;;1.33;;
58308;SDS011;44117;57.142;24.826;2022-10-18T13:01:01;2.97;;;2.58;;
58308;SDS011;44117;57.142;24.826;2022-10-18T13:03:38;3.67;;;2.13;;
58308;SDS011;44117;57.142;24.826;2022-10-18T13:06:17;13.30;;;7.60;;
58308;SDS011;44117;57.142;24.826;2022-10-18T13:08:45;42.15;;;35.67;;
58308;SDS011;44117;57.142;24.826;2022-10-18T13:11:25;3.65;;;2.88;;
58308;SDS011;44117;57.142;24.826;2022-10-18T13:14:08;7.43;;;4.40;;
58308;SDS011;44117;57.142;24.826;2022-10-18T13:20:00;5.30;;;4.40;;
58308;SDS011;44117;57.142;24.826;2022-10-18T13:23:10;7.25;;;6.20;;
58308;SDS011;44117;57.142;24.826;2022-10-18T13:26:27;3.55;;;0.90;;
58308;SDS011;44117;57.142;24.826;2022-10-18T13:32:01;5.50;;;2.75;;
58308;SDS011;44117;57.142;24.826;2022-10-18T13:34:50;3.28;;;0.80;;
58308;SDS011;44117;57.142;24.826;2022-10-18T13:37:21;1.65;;;0.95;;
58308;SDS011;44117;57.142;24.826;2022-10-18T13:39:52;2.00;;;0.90;;
58308;SDS011;44117;57.142;24.826;2022-10-18T13:42:56;17.17;;;7.93;;
58308;SDS011;44117;57.142;24.826;2022-10-18T13:45:51;2.63;;;1.08;;
58308;SDS011;44117;57.142;24.826;2022-10-18T13:50:58;4.45;;;1.95;;
58308;SDS011;44117;57.142;24.826;2022-10-18T13:53:44;1.90;;;0.70;;
58308;SDS011;44117;57.142;24.826;2022-10-18T13:56:49;32.63;;;14.32;;
58308;SDS011;44117;57.142;24.826;2022-10-18T14:02:41;8.13;;;3.10;;
58308;SDS011;44117;57.142;24.826;2022-10-18T14:16:54;2.72;;;0.95;;
58308;SDS011;44117;57.142;24.826;2022-10-18T14:19:38;1.60;;;0.85;;
58308;SDS011;44117;57.142;24.826;2022-10-18T14:24:42;5.43;;;2.15;;
58308;SDS011;44117;57.142;24.826;2022-10-18T14:27:28;5.38;;;0.90;;
58308;SDS011;44117;57.142;24.826;2022-10-18T14:32:45;34.30;;;13.95;;
58308;SDS011;44117;57.142;24.826;2022-10-18T14:35:24;33.42;;;13.63;;
58308;SDS011;44117;57.142;24.826;2022-10-18T14:37:58;5.78;;;1.40;;
58308;SDS011;44117;57.142;24.826;2022-10-18T14:43:01;2.03;;;0.70;;
58308;SDS011;44117;57.142;24.826;2022-10-18T14:45:30;54.20;;;20.55;;
58308;SDS011;44117;57.142;24.826;2022-10-18T14:48:06;4.13;;;0.98;;
58308;SDS011;44117;57.142;24.826;2022-10-18T14:50:40;10.13;;;3.13;;
58308;SDS011;44117;57.142;24.826;2022-10-18T14:53:14;5.97;;;2.30;;
58308;SDS011;44117;57.142;24.826;2022-10-18T14:55:51;6.70;;;2.15;;
58308;SDS011;44117;57.142;24.826;2022-10-18T14:58:20;2.25;;;0.80;;
58308;SDS011;44117;57.142;24.826;2022-10-18T15:00:48;26.67;;;10.98;;
58308;SDS011;44117;57.142;24.826;2022-10-18T15:03:16;10.25;;;2.30;;
58308;SDS011;44117;57.142;24.826;2022-10-18T15:05:57;4.22;;;1.10;;
58308;SDS011;44117;57.142;24.826;2022-10-18T15:08:39;1.55;;;0.88;;
58308;SDS011;44117;57.142;24.826;2022-10-18T15:11:08;2.80;;;0.82;;
58308;SDS011;44117;57.142;24.826;2022-10-18T15:13:45;30.40;;;13.93;;
58308;SDS011;44117;57.142;24.826;2022-10-18T15:16:25;1.73;;;0.73;;
58308;SDS011;44117;57.142;24.826;2022-10-18T15:19:05;3.40;;;1.42;;
58308;SDS011;44117;57.142;24.826;2022-10-18T15:24:42;2.58;;;1.42;;
58308;SDS011;44117;57.142;24.826;2022-10-18T15:29:44;3.53;;;1.70;;
58308;SDS011;44117;57.142;24.826;2022-10-18T15:32:19;3.20;;;0.85;;
58308;SDS011;44117;57.142;24.826;2022-10-18T15:34:53;1.83;;;0.95;;
58308;SDS011;44117;57.142;24.826;2022-10-18T15:37:31;2.40;;;0.82;;
58308;SDS011;44117;57.142;24.826;2022-10-18T15:42:51;2.45;;;0.85;;
58308;SDS011;44117;57.142;24.826;2022-10-18T15:58:35;0.85;;;0.50;;
58308;SDS011;44117;57.142;24.826;2022-10-18T16:01:18;2.08;;;0.90;;
58308;SDS011;44117;57.142;24.826;2022-10-18T16:03:52;1.10;;;0.75;;
58308;SDS011;44117;57.142;24.826;2022-10-18T16:06:24;0.80;;;0.57;;
58308;SDS011;44117;57.142;24.826;2022-10-18T16:08:52;2.03;;;0.95;;
58308;SDS011;44117;57.142;24.826;2022-10-18T16:11:21;2.47;;;0.90;;
58308;SDS011;44117;57.142;24.826;2022-10-18T16:13:50;2.15;;;0.80;;
58308;SDS011;44117;57.142;24.826;2022-10-18T16:16:25;3.40;;;0.70;;
58308;SDS011;44117;57.142;24.826;2022-10-18T16:18:54;2.20;;;0.75;;
58308;SDS011;44117;57.142;24.826;2022-10-18T16:21:27;2.05;;;0.82;;
58308;SDS011;44117;57.142;24.826;2022-10-18T16:26:24;2.15;;;0.80;;
58308;SDS011;44117;57.142;24.826;2022-10-18T16:28:53;1.25;;;0.70;;
58308;SDS011;44117;57.142;24.826;2022-10-18T16:31:25;1.55;;;1.00;;
58308;SDS011;44117;57.142;24.826;2022-10-18T16:33:54;2.25;;;0.70;;
58308;SDS011;44117;57.142;24.826;2022-10-18T16:36:23;1.95;;;0.70;;
58308;SDS011;44117;57.142;24.826;2022-10-18T16:38:56;1.92;;;0.70;;
58308;SDS011;44117;57.142;24.826;2022-10-18T16:41:26;3.13;;;0.80;;
58308;SDS011;44117;57.142;24.826;2022-10-18T16:43:54;7.10;;;4.32;;
58308;SDS011;44117;57.142;24.826;2022-10-18T16:46:22;5.53;;;1.90;;
58308;SDS011;44117;57.142;24.826;2022-10-18T16:48:53;3.00;;;1.63;;
58308;SDS011;44117;57.142;24.826;2022-10-18T16:51:21;20.15;;;9.80;;
58308;SDS011;44117;57.142;24.826;2022-10-18T16:53:49;17.17;;;8.07;;
58308;SDS011;44117;57.142;24.826;2022-10-18T16:56:17;8.70;;;5.15;;
58308;SDS011;44117;57.142;24.826;2022-10-18T16:58:50;54.78;;;29.55;;
58308;SDS011;44117;57.142;24.826;2022-10-18T17:01:18;14.73;;;8.57;;
58308;SDS011;44117;57.142;24.826;2022-10-18T17:03:47;7.82;;;3.70;;
58308;SDS011;44117;57.142;24.826;2022-10-18T17:06:15;18.63;;;10.57;;
58308;SDS011;44117;57.142;24.826;2022-10-18T17:08:45;7.22;;;4.47;;
58308;SDS011;44117;57.142;24.826;2022-10-18T17:11:12;3.58;;;1.98;;
58308;SDS011;44117;57.142;24.826;2022-10-18T17:13:41;15.65;;;11.15;;
58308;SDS011;44117;57.142;24.826;2022-10-18T17:16:28;6.72;;;2.90;;
58308;SDS011;44117;57.142;24.826;2022-10-18T17:19:00;26.35;;;17.45;;
58308;SDS011;44117;57.142;24.826;2022-10-18T17:21:29;9.82;;;6.65;;
58308;SDS011;44117;57.142;24.826;2022-10-18T17:23:56;9.52;;;5.82;;
58308;SDS011;44117;57.142;24.826;2022-10-18T17:26:26;6.55;;;4.05;;
58308;SDS011;44117;57.142;24.826;2022-10-18T17:28:56;6.28;;;2.90;;
58308;SDS011;44117;57.142;24.826;2022-10-18T17:31:25;3.58;;;1.85;;
58308;SDS011;44117;57.142;24.826;2022-10-18T17:33:54;9.27;;;4.47;;
58308;SDS011;44117;57.142;24.826;2022-10-18T17:36:21;14.75;;;6.97;;
58308;SDS011;44117;57.142;24.826;2022-10-18T17:38:49;3.05;;;1.15;;